Hlavní strana
METAR-TAF:

METAR-TAF

Letiště :

Kirkenes, Norsko

zeměpisná šířka: 69-44N, zeměpisná délka: 029-54E, výška: 9 m

Aktuální stav počasí

Zpráva byla vytvořena před 32 minutami, v 00:20 UTC
Jižní vítr 8 kt
Teplota 0°C
Vlhkost vzduchu 80%
Tlak 1005 hPa
Viditelnost 10 km a více

METAR: ENKR 090020Z AUTO 17008KT 9999 NCD M00/M03 Q1005 RMK WIND 731FT 17014KT

Čas: 02:52 (00:52 UTC)

Předpověď počasí

Zpráva byla vytvořena před 1 hodinou a 52 minutami, v 23:00 UTC
Předpověď platná od 09 v 00 UTC do 09 v 09 UTC
Jižní vítr 9 kt
Viditelnost 10 km a více
Skoro jasno ve výšce 2500 ft
Polojasno ve výšce 5000 ft

TAF: ENKR 082300Z 0900/0909 17009KT 9999 FEW025 SCT050

Stav a předpovědi počasí z více než 4 000 letišť (zprávy METAR a TAF).

Červené a žluté tečky na mapě představují dostupné meteorologické stanice.

Když kurzor umístíte na tečku, zobrazí se název stanice.

Pak kliknutím zobrazíte stav a předpověď počasí.

Chcete-li změnit mapu, kliknutím na zelené tlačítko se znaménkem +mapu přiblížíte, kliknutím na zelené tlačítko se znaménkem – mapu oddálíte a kliknutím na zelené šipky přejdete na sousední mapy.


METAR-TAF: